sensor_id;sensor_type;location;lat;lon;timestamp;pressure;altitude;pressure_sealevel;temperature;humidity
23281;BME280;11809;56.390;-3.266;2023-02-28T00:01:30;103503.31;;;15.19;49.66
23281;BME280;11809;56.390;-3.266;2023-02-28T00:03:58;103504.25;;;15.16;49.62
23281;BME280;11809;56.390;-3.266;2023-02-28T00:06:25;103499.88;;;15.14;49.73
23281;BME280;11809;56.390;-3.266;2023-02-28T00:08:52;103502.50;;;15.12;49.94
23281;BME280;11809;56.390;-3.266;2023-02-28T00:11:19;103503.44;;;15.11;49.72
23281;BME280;11809;56.390;-3.266;2023-02-28T00:13:47;103499.03;;;15.09;49.69
23281;BME280;11809;56.390;-3.266;2023-02-28T00:16:16;103507.00;;;15.07;49.94
23281;BME280;11809;56.390;-3.266;2023-02-28T00:18:45;103513.19;;;15.06;49.91
23281;BME280;11809;56.390;-3.266;2023-02-28T00:21:13;103507.97;;;15.03;49.86
23281;BME280;11809;56.390;-3.266;2023-02-28T00:23:40;103501.78;;;15.01;49.88
23281;BME280;11809;56.390;-3.266;2023-02-28T00:26:07;103500.03;;;15.00;50.09
23281;BME280;11809;56.390;-3.266;2023-02-28T00:28:34;103507.13;;;15.00;49.99
23281;BME280;11809;56.390;-3.266;2023-02-28T00:31:02;103515.94;;;15.00;50.06
23281;BME280;11809;56.390;-3.266;2023-02-28T00:33:29;103500.13;;;14.94;50.06
23281;BME280;11809;56.390;-3.266;2023-02-28T00:36:04;103508.91;;;14.96;50.21
23281;BME280;11809;56.390;-3.266;2023-02-28T00:38:32;103513.34;;;14.94;50.08
23281;BME280;11809;56.390;-3.266;2023-02-28T00:40:59;103513.34;;;14.94;50.34
23281;BME280;11809;56.390;-3.266;2023-02-28T00:43:33;103516.03;;;14.91;50.30
23281;BME280;11809;56.390;-3.266;2023-02-28T00:46:01;103514.28;;;14.90;50.42
23281;BME280;11809;56.390;-3.266;2023-02-28T00:48:28;103511.66;;;14.89;50.19
23281;BME280;11809;56.390;-3.266;2023-02-28T00:50:55;103503.75;;;14.86;50.61
23281;BME280;11809;56.390;-3.266;2023-02-28T00:53:22;103512.53;;;14.88;50.35
23281;BME280;11809;56.390;-3.266;2023-02-28T00:55:49;103518.75;;;14.87;50.49
23281;BME280;11809;56.390;-3.266;2023-02-28T00:58:17;103519.63;;;14.86;50.44
23281;BME280;11809;56.390;-3.266;2023-02-28T01:00:44;103518.75;;;14.85;50.51
23281;BME280;11809;56.390;-3.266;2023-02-28T01:03:17;103519.66;;;14.84;50.48
23281;BME280;11809;56.390;-3.266;2023-02-28T01:05:45;103519.66;;;14.84;50.54
23281;BME280;11809;56.390;-3.266;2023-02-28T01:08:13;103519.69;;;14.81;50.48
23281;BME280;11809;56.390;-3.266;2023-02-28T01:10:41;103519.69;;;14.81;50.38
23281;BME280;11809;56.390;-3.266;2023-02-28T01:13:08;103515.28;;;14.82;50.70
23281;BME280;11809;56.390;-3.266;2023-02-28T01:15:35;103518.81;;;14.81;50.83
23281;BME280;11809;56.390;-3.266;2023-02-28T01:18:02;103517.06;;;14.81;50.59
23281;BME280;11809;56.390;-3.266;2023-02-28T01:20:29;103521.50;;;14.78;50.58
23281;BME280;11809;56.390;-3.266;2023-02-28T01:22:56;103513.56;;;14.79;50.73
23281;BME280;11809;56.390;-3.266;2023-02-28T01:25:23;103518.84;;;14.79;50.53
23281;BME280;11809;56.390;-3.266;2023-02-28T01:27:50;103517.97;;;14.77;50.73
23281;BME280;11809;56.390;-3.266;2023-02-28T01:30:17;103503.88;;;14.75;50.89
23281;BME280;11809;56.390;-3.266;2023-02-28T01:32:44;103507.41;;;14.76;51.04
23281;BME280;11809;56.390;-3.266;2023-02-28T01:35:11;103505.66;;;14.76;51.26
23281;BME280;11809;56.390;-3.266;2023-02-28T01:37:38;103509.19;;;14.75;51.24
23281;BME280;11809;56.390;-3.266;2023-02-28T01:40:06;103503.03;;;14.73;51.07
23281;BME280;11809;56.390;-3.266;2023-02-28T01:42:33;103502.16;;;14.74;51.21
23281;BME280;11809;56.390;-3.266;2023-02-28T01:47:32;103507.47;;;14.71;51.02
23281;BME280;11809;56.390;-3.266;2023-02-28T01:50:04;103511.88;;;14.71;51.22
23281;BME280;11809;56.390;-3.266;2023-02-28T01:52:32;103505.75;;;14.69;51.00
23281;BME280;11809;56.390;-3.266;2023-02-28T01:55:02;103515.41;;;14.71;50.97
23281;BME280;11809;56.390;-3.266;2023-02-28T01:57:34;103511.03;;;14.69;51.10
23281;BME280;11809;56.390;-3.266;2023-02-28T02:00:13;103525.09;;;14.72;51.13
23281;BME280;11809;56.390;-3.266;2023-02-28T02:02:43;103521.56;;;14.72;50.95
23281;BME280;11809;56.390;-3.266;2023-02-28T02:05:20;103519.88;;;14.68;51.26
23281;BME280;11809;56.390;-3.266;2023-02-28T02:07:50;103528.69;;;14.68;51.23
23281;BME280;11809;56.390;-3.266;2023-02-28T02:10:27;103527.78;;;14.69;51.02
23281;BME280;11809;56.390;-3.266;2023-02-28T02:15:28;103518.97;;;14.67;50.90
23281;BME280;11809;56.390;-3.266;2023-02-28T02:18:02;103523.38;;;14.67;51.11
23281;BME280;11809;56.390;-3.266;2023-02-28T02:20:57;103525.19;;;14.66;50.91
23281;BME280;11809;56.390;-3.266;2023-02-28T02:37:04;103525.19;;;14.66;51.39
23281;BME280;11809;56.390;-3.266;2023-02-28T02:42:20;103528.72;;;14.65;51.42
23281;BME280;11809;56.390;-3.266;2023-02-28T02:44:55;103526.94;;;14.66;51.29
23281;BME280;11809;56.390;-3.266;2023-02-28T02:47:26;103529.59;;;14.66;51.26
23281;BME280;11809;56.390;-3.266;2023-02-28T02:49:58;103525.19;;;14.66;51.55
23281;BME280;11809;56.390;-3.266;2023-02-28T02:52:36;103518.97;;;14.67;51.29
23281;BME280;11809;56.390;-3.266;2023-02-28T02:55:06;103518.09;;;14.68;51.47
23281;BME280;11809;56.390;-3.266;2023-02-28T02:57:47;103517.22;;;14.68;51.32
23281;BME280;11809;56.390;-3.266;2023-02-28T03:00:22;103517.22;;;14.68;51.31
23281;BME280;11809;56.390;-3.266;2023-02-28T03:02:52;103515.44;;;14.68;51.25
23281;BME280;11809;56.390;-3.266;2023-02-28T03:05:27;103523.38;;;14.68;51.41
23281;BME280;11809;56.390;-3.266;2023-02-28T03:07:55;103513.69;;;14.67;51.52
23281;BME280;11809;56.390;-3.266;2023-02-28T03:10:31;103515.41;;;14.70;51.32
23281;BME280;11809;56.390;-3.266;2023-02-28T03:21:32;103520.69;;;14.73;51.12
23281;BME280;11809;56.390;-3.266;2023-02-28T03:27:17;103520.72;;;14.71;51.13
23281;BME280;11809;56.390;-3.266;2023-02-28T03:29:53;103518.06;;;14.71;51.34
23281;BME280;11809;56.390;-3.266;2023-02-28T03:33:20;103523.34;;;14.74;51.52
23281;BME280;11809;56.390;-3.266;2023-02-28T03:35:32;103517.13;;;14.75;51.16
23281;BME280;11809;56.390;-3.266;2023-02-28T03:38:07;103513.59;;;14.76;51.09
23281;BME280;11809;56.390;-3.266;2023-02-28T03:40:37;103515.38;;;14.74;51.35
23281;BME280;11809;56.390;-3.266;2023-02-28T03:43:10;103521.50;;;14.79;51.37
23281;BME280;11809;56.390;-3.266;2023-02-28T03:45:41;103525.88;;;14.80;51.54
23281;BME280;11809;56.390;-3.266;2023-02-28T03:50:43;103517.06;;;14.81;51.33
23281;BME280;11809;56.390;-3.266;2023-02-28T03:53:14;103524.13;;;14.82;51.35
23281;BME280;11809;56.390;-3.266;2023-02-28T03:55:50;103532.91;;;14.84;51.06
23281;BME280;11809;56.390;-3.266;2023-02-28T03:58:26;103522.31;;;14.84;51.07
23281;BME280;11809;56.390;-3.266;2023-02-28T04:01:05;103525.81;;;14.86;51.41
23281;BME280;11809;56.390;-3.266;2023-02-28T04:03:38;103515.22;;;14.86;51.36
23281;BME280;11809;56.390;-3.266;2023-02-28T04:06:15;103517.00;;;14.87;51.07
23281;BME280;11809;56.390;-3.266;2023-02-28T04:08:43;103522.28;;;14.87;51.12
23281;BME280;11809;56.390;-3.266;2023-02-28T04:11:31;103521.38;;;14.90;51.17
23281;BME280;11809;56.390;-3.266;2023-02-28T04:13:59;103524.88;;;14.90;51.25
23281;BME280;11809;56.390;-3.266;2023-02-28T04:16:26;103527.47;;;14.93;51.58
23281;BME280;11809;56.390;-3.266;2023-02-28T04:19:02;103528.41;;;14.92;51.28
23281;BME280;11809;56.390;-3.266;2023-02-28T04:21:44;103530.13;;;14.93;51.39
23281;BME280;11809;56.390;-3.266;2023-02-28T04:24:23;103528.38;;;14.95;51.06
23281;BME280;11809;56.390;-3.266;2023-02-28T04:26:53;103536.25;;;14.98;51.27
23281;BME280;11809;56.390;-3.266;2023-02-28T04:29:46;103538.00;;;14.99;51.16
23281;BME280;11809;56.390;-3.266;2023-02-28T04:32:13;103535.31;;;15.01;51.28
23281;BME280;11809;56.390;-3.266;2023-02-28T04:34:40;103537.09;;;15.02;51.37
23281;BME280;11809;56.390;-3.266;2023-02-28T04:37:07;103531.78;;;15.02;51.40
23281;BME280;11809;56.390;-3.266;2023-02-28T04:39:40;103530.00;;;15.05;51.21
23281;BME280;11809;56.390;-3.266;2023-02-28T04:42:08;103532.66;;;15.05;51.28
23281;BME280;11809;56.390;-3.266;2023-02-28T04:44:35;103529.06;;;15.06;51.23
23281;BME280;11809;56.390;-3.266;2023-02-28T04:47:02;103528.19;;;15.07;51.27
23281;BME280;11809;56.390;-3.266;2023-02-28T04:49:29;103533.50;;;15.07;51.48
23281;BME280;11809;56.390;-3.266;2023-02-28T04:51:56;103522.91;;;15.07;51.05
23281;BME280;11809;56.390;-3.266;2023-02-28T04:54:23;103538.72;;;15.12;51.13
23281;BME280;11809;56.390;-3.266;2023-02-28T04:56:49;103534.31;;;15.12;51.14
23281;BME280;11809;56.390;-3.266;2023-02-28T04:59:17;103539.63;;;15.09;51.47
23281;BME280;11809;56.390;-3.266;2023-02-28T05:01:48;103546.69;;;15.10;51.35
23281;BME280;11809;56.390;-3.266;2023-02-28T05:04:15;103536.09;;;15.10;51.54
23281;BME280;11809;56.390;-3.266;2023-02-28T05:06:42;103539.59;;;15.12;51.17
23281;BME280;11809;56.390;-3.266;2023-02-28T05:09:10;103536.09;;;15.10;51.47
23281;BME280;11809;56.390;-3.266;2023-02-28T05:11:40;103541.38;;;15.13;51.49
23281;BME280;11809;56.390;-3.266;2023-02-28T05:14:11;103534.31;;;15.12;51.48
23281;BME280;11809;56.390;-3.266;2023-02-28T05:16:38;103542.19;;;15.18;51.15
23281;BME280;11809;56.390;-3.266;2023-02-28T05:19:05;103540.44;;;15.16;51.29
23281;BME280;11809;56.390;-3.266;2023-02-28T05:21:37;103530.78;;;15.13;51.21
23281;BME280;11809;56.390;-3.266;2023-02-28T05:24:07;103538.72;;;15.13;51.36
23281;BME280;11809;56.390;-3.266;2023-02-28T05:26:41;103542.22;;;15.15;51.40
23281;BME280;11809;56.390;-3.266;2023-02-28T05:29:09;103532.50;;;15.14;51.21
23281;BME280;11809;56.390;-3.266;2023-02-28T05:31:36;103543.09;;;15.14;51.52
23281;BME280;11809;56.390;-3.266;2023-02-28T05:34:03;103537.75;;;15.17;51.06
23281;BME280;11809;56.390;-3.266;2023-02-28T05:36:31;103533.41;;;15.12;51.34
23281;BME280;11809;56.390;-3.266;2023-02-28T05:38:58;103533.38;;;15.15;51.44
23281;BME280;11809;56.390;-3.266;2023-02-28T05:41:25;103544.78;;;15.22;51.31
23281;BME280;11809;56.390;-3.266;2023-02-28T05:43:53;103544.97;;;15.06;51.29
23281;BME280;11809;56.390;-3.266;2023-02-28T05:46:20;103541.34;;;15.16;51.20
23281;BME280;11809;56.390;-3.266;2023-02-28T05:48:48;103539.47;;;15.23;51.03
23281;BME280;11809;56.390;-3.266;2023-02-28T05:51:16;103546.44;;;15.30;50.97
23281;BME280;11809;56.390;-3.266;2023-02-28T05:53:42;103546.38;;;15.35;50.84
23281;BME280;11809;56.390;-3.266;2023-02-28T05:56:09;103546.34;;;15.36;50.90
23281;BME280;11809;56.390;-3.266;2023-02-28T05:58:36;103548.16;;;15.34;50.19
23281;BME280;11809;56.390;-3.266;2023-02-28T06:01:43;103551.63;;;15.38;50.27
23281;BME280;11809;56.390;-3.266;2023-02-28T06:04:16;103546.34;;;15.38;50.39
23281;BME280;11809;56.390;-3.266;2023-02-28T06:06:57;103549.78;;;15.43;50.33
23281;BME280;11809;56.390;-3.266;2023-02-28T06:09:24;103548.06;;;15.39;49.99
23281;BME280;11809;56.390;-3.266;2023-02-28T06:11:51;103552.56;;;15.35;49.60
23281;BME280;11809;56.390;-3.266;2023-02-28T06:14:19;103543.72;;;15.35;50.08
23281;BME280;11809;56.390;-3.266;2023-02-28T06:16:46;103532.16;;;15.39;50.29
23281;BME280;11809;56.390;-3.266;2023-02-28T06:19:13;103532.97;;;15.47;50.26
23281;BME280;11809;56.390;-3.266;2023-02-28T06:21:42;103545.28;;;15.51;50.50
23281;BME280;11809;56.390;-3.266;2023-02-28T06:24:10;103554.97;;;15.52;50.42
23281;BME280;11809;56.390;-3.266;2023-02-28T06:26:37;103553.09;;;15.60;50.40
23281;BME280;11809;56.390;-3.266;2023-02-28T06:29:04;103558.38;;;15.61;50.64
23281;BME280;11809;56.390;-3.266;2023-02-28T06:31:30;103557.44;;;15.65;50.66
23281;BME280;11809;56.390;-3.266;2023-02-28T06:33:58;103563.63;;;15.66;51.37
23281;BME280;11809;56.390;-3.266;2023-02-28T06:36:25;103556.91;;;15.39;44.45
23281;BME280;11809;56.390;-3.266;2023-02-28T06:38:52;103558.75;;;15.34;48.81
23281;BME280;11809;56.390;-3.266;2023-02-28T06:41:25;103559.47;;;15.44;48.89
23281;BME280;11809;56.390;-3.266;2023-02-28T06:43:53;103554.16;;;15.48;49.52
23281;BME280;11809;56.390;-3.266;2023-02-28T06:46:21;103554.06;;;15.54;49.62
23281;BME280;11809;56.390;-3.266;2023-02-28T06:48:48;103564.72;;;15.51;50.16
23281;BME280;11809;56.390;-3.266;2023-02-28T06:51:18;103568.34;;;15.41;50.24
23281;BME280;11809;56.390;-3.266;2023-02-28T06:53:46;103571.91;;;15.40;50.31
23281;BME280;11809;56.390;-3.266;2023-02-28T06:56:15;103566.63;;;15.39;50.10
23281;BME280;11809;56.390;-3.266;2023-02-28T06:58:46;103567.53;;;15.36;50.01
23281;BME280;11809;56.390;-3.266;2023-02-28T07:01:15;103576.38;;;15.37;50.27
23281;BME280;11809;56.390;-3.266;2023-02-28T07:03:42;103571.09;;;15.35;50.33
23281;BME280;11809;56.390;-3.266;2023-02-28T07:06:09;103566.72;;;15.31;50.19
23281;BME280;11809;56.390;-3.266;2023-02-28T07:08:36;103572.09;;;15.27;48.37
23281;BME280;11809;56.390;-3.266;2023-02-28T07:11:03;103573.53;;;14.82;46.06
23281;BME280;11809;56.390;-3.266;2023-02-28T07:13:31;103580.72;;;14.71;46.78
23281;BME280;11809;56.390;-3.266;2023-02-28T07:16:00;103578.06;;;14.69;48.43
23281;BME280;11809;56.390;-3.266;2023-02-28T07:18:28;103578.09;;;14.68;49.90
23281;BME280;11809;56.390;-3.266;2023-02-28T07:20:55;103580.81;;;14.63;50.41
23281;BME280;11809;56.390;-3.266;2023-02-28T07:23:23;103577.34;;;14.55;50.84
23281;BME280;11809;56.390;-3.266;2023-02-28T07:25:50;103585.28;;;14.55;50.83
23281;BME280;11809;56.390;-3.266;2023-02-28T07:28:18;103587.94;;;14.53;51.10
23281;BME280;11809;56.390;-3.266;2023-02-28T07:30:45;103588.00;;;14.49;51.17
23281;BME280;11809;56.390;-3.266;2023-02-28T07:33:12;103593.31;;;14.47;51.42
23281;BME280;11809;56.390;-3.266;2023-02-28T07:35:40;103598.56;;;14.49;51.47
23281;BME280;11809;56.390;-3.266;2023-02-28T07:38:07;103595.06;;;14.45;51.49
23281;BME280;11809;56.390;-3.266;2023-02-28T07:40:36;103598.53;;;14.53;51.77
23281;BME280;11809;56.390;-3.266;2023-02-28T07:43:03;103596.84;;;14.46;51.24
23281;BME280;11809;56.390;-3.266;2023-02-28T07:45:30;103595.06;;;14.50;51.22
23281;BME280;11809;56.390;-3.266;2023-02-28T07:48:01;103588.75;;;14.63;51.71
23281;BME280;11809;56.390;-3.266;2023-02-28T07:50:28;103587.75;;;14.73;51.38
23281;BME280;11809;56.390;-3.266;2023-02-28T07:52:58;103590.28;;;14.84;51.15
23281;BME280;11809;56.390;-3.266;2023-02-28T07:55:26;103601.72;;;14.87;51.33
23281;BME280;11809;56.390;-3.266;2023-02-28T07:57:53;103602.53;;;14.92;51.64
23281;BME280;11809;56.390;-3.266;2023-02-28T08:00:20;103610.41;;;14.98;51.60
23281;BME280;11809;56.390;-3.266;2023-02-28T08:02:48;103618.38;;;14.97;50.58
23281;BME280;11809;56.390;-3.266;2023-02-28T08:05:15;103609.53;;;14.96;50.99
23281;BME280;11809;56.390;-3.266;2023-02-28T08:07:43;103600.69;;;15.00;51.50
23281;BME280;11809;56.390;-3.266;2023-02-28T08:10:11;103603.25;;;15.06;51.45
23281;BME280;11809;56.390;-3.266;2023-02-28T08:12:37;103606.75;;;15.11;51.61
23281;BME280;11809;56.390;-3.266;2023-02-28T08:15:05;103608.47;;;15.12;51.33
23281;BME280;11809;56.390;-3.266;2023-02-28T08:17:32;103604.06;;;15.13;51.91
23281;BME280;11809;56.390;-3.266;2023-02-28T08:20:00;103608.44;;;15.15;51.78
23281;BME280;11809;56.390;-3.266;2023-02-28T08:22:27;103611.06;;;15.17;51.45
23281;BME280;11809;56.390;-3.266;2023-02-28T08:24:55;103604.03;;;15.14;51.44
23281;BME280;11809;56.390;-3.266;2023-02-28T08:27:22;103615.44;;;15.19;51.60
23281;BME280;11809;56.390;-3.266;2023-02-28T08:29:49;103615.41;;;15.23;51.59
23281;BME280;11809;56.390;-3.266;2023-02-28T08:32:16;103618.03;;;15.26;51.54
23281;BME280;11809;56.390;-3.266;2023-02-28T08:34:55;103610.09;;;15.24;51.35
23281;BME280;11809;56.390;-3.266;2023-02-28T08:37:22;103619.78;;;15.27;51.48
23281;BME280;11809;56.390;-3.266;2023-02-28T08:39:49;103620.63;;;15.29;51.47
23281;BME280;11809;56.390;-3.266;2023-02-28T08:42:16;103621.50;;;15.31;51.52
23281;BME280;11809;56.390;-3.266;2023-02-28T08:44:43;103621.50;;;15.31;51.43
23281;BME280;11809;56.390;-3.266;2023-02-28T08:47:10;103625.88;;;15.33;51.38
23281;BME280;11809;56.390;-3.266;2023-02-28T08:49:37;103619.69;;;15.34;51.35
23281;BME280;11809;56.390;-3.266;2023-02-28T08:52:04;103617.91;;;15.35;51.48
23281;BME280;11809;56.390;-3.266;2023-02-28T08:54:31;103611.69;;;15.36;51.31
23281;BME280;11809;56.390;-3.266;2023-02-28T08:57:00;103604.63;;;15.38;51.46
23281;BME280;11809;56.390;-3.266;2023-02-28T08:59:27;103607.28;;;15.36;51.11
23281;BME280;11809;56.390;-3.266;2023-02-28T09:01:54;103617.84;;;15.39;51.24
23281;BME280;11809;56.390;-3.266;2023-02-28T09:04:21;103602.81;;;15.41;51.44
23281;BME280;11809;56.390;-3.266;2023-02-28T09:06:50;103618.69;;;15.43;51.15
23281;BME280;11809;56.390;-3.266;2023-02-28T09:09:17;103615.19;;;15.41;50.78
23281;BME280;11809;56.390;-3.266;2023-02-28T09:11:45;103619.59;;;15.43;50.85
23281;BME280;11809;56.390;-3.266;2023-02-28T09:14:12;103618.66;;;15.44;50.66
23281;BME280;11809;56.390;-3.266;2023-02-28T09:16:39;103620.44;;;15.47;50.37
23281;BME280;11809;56.390;-3.266;2023-02-28T09:19:06;103619.50;;;15.49;50.50
23281;BME280;11809;56.390;-3.266;2023-02-28T09:21:33;103623.94;;;15.50;50.54
23281;BME280;11809;56.390;-3.266;2023-02-28T09:24:00;103617.69;;;15.54;51.60
23281;BME280;11809;56.390;-3.266;2023-02-28T09:26:27;103629.16;;;15.56;50.82
23281;BME280;11809;56.390;-3.266;2023-02-28T09:29:07;103625.59;;;15.59;50.53
23281;BME280;11809;56.390;-3.266;2023-02-28T09:31:35;103637.03;;;15.61;50.49
23281;BME280;11809;56.390;-3.266;2023-02-28T09:34:03;103630.84;;;15.60;50.56
23281;BME280;11809;56.390;-3.266;2023-02-28T09:36:30;103627.34;;;15.58;50.47
23281;BME280;11809;56.390;-3.266;2023-02-28T09:39:10;103624.63;;;15.63;50.42
23281;BME280;11809;56.390;-3.266;2023-02-28T09:41:41;103628.09;;;15.68;50.86
23281;BME280;11809;56.390;-3.266;2023-02-28T09:44:30;103627.09;;;15.76;50.80
23281;BME280;11809;56.390;-3.266;2023-02-28T09:47:11;103621.66;;;15.84;50.63
23281;BME280;11809;56.390;-3.266;2023-02-28T09:49:45;103626.97;;;15.84;50.43
23281;BME280;11809;56.390;-3.266;2023-02-28T09:52:23;103631.25;;;15.94;50.85
23281;BME280;11809;56.390;-3.266;2023-02-28T09:54:53;103635.69;;;15.92;50.43
23281;BME280;11809;56.390;-3.266;2023-02-28T09:57:34;103637.50;;;15.90;50.36
23281;BME280;11809;56.390;-3.266;2023-02-28T10:00:17;103627.78;;;15.89;50.45
23281;BME280;11809;56.390;-3.266;2023-02-28T10:02:53;103634.00;;;15.88;49.86
23281;BME280;11809;56.390;-3.266;2023-02-28T10:05:26;103639.44;;;15.81;49.91
23281;BME280;11809;56.390;-3.266;2023-02-28T10:10:51;103635.06;;;15.76;50.12
23281;BME280;11809;56.390;-3.266;2023-02-28T10:13:50;103633.97;;;15.91;50.05
23281;BME280;11809;56.390;-3.266;2023-02-28T10:16:22;103626.66;;;16.05;50.36
23281;BME280;11809;56.390;-3.266;2023-02-28T10:18:59;103629.25;;;16.10;50.23
23281;BME280;11809;56.390;-3.266;2023-02-28T10:21:36;103629.22;;;16.11;50.57
23281;BME280;11809;56.390;-3.266;2023-02-28T10:24:23;103629.97;;;16.19;50.30
23281;BME280;11809;56.390;-3.266;2023-02-28T10:26:59;103627.28;;;16.21;50.34
23281;BME280;11809;56.390;-3.266;2023-02-28T10:29:28;103630.78;;;16.24;50.24
23281;BME280;11809;56.390;-3.266;2023-02-28T10:32:01;103627.16;;;16.30;50.40
23281;BME280;11809;56.390;-3.266;2023-02-28T10:34:29;103623.53;;;16.34;50.48
23281;BME280;11809;56.390;-3.266;2023-02-28T10:36:58;103613.75;;;16.37;50.19
23281;BME280;11809;56.390;-3.266;2023-02-28T10:39:35;103624.34;;;16.39;50.21
23281;BME280;11809;56.390;-3.266;2023-02-28T10:42:27;103626.91;;;16.44;50.31
23281;BME280;11809;56.390;-3.266;2023-02-28T10:45:16;103626.03;;;16.45;50.08
23281;BME280;11809;56.390;-3.266;2023-02-28T10:47:53;103621.56;;;16.47;50.12
23281;BME280;11809;56.390;-3.266;2023-02-28T10:58:56;103622.19;;;16.61;50.19
23281;BME280;11809;56.390;-3.266;2023-02-28T11:03:57;103626.53;;;16.66;50.01
23281;BME280;11809;56.390;-3.266;2023-02-28T11:06:34;103622.09;;;16.67;50.20
23281;BME280;11809;56.390;-3.266;2023-02-28T11:09:27;103616.78;;;16.67;50.49
23281;BME280;11809;56.390;-3.266;2023-02-28T11:11:56;103626.47;;;16.71;49.96
23281;BME280;11809;56.390;-3.266;2023-02-28T11:14:32;103623.88;;;16.68;50.00
23281;BME280;11809;56.390;-3.266;2023-02-28T11:17:15;103630.09;;;16.65;50.00
23281;BME280;11809;56.390;-3.266;2023-02-28T11:19:48;103618.91;;;16.45;47.25
23281;BME280;11809;56.390;-3.266;2023-02-28T11:22:22;103624.78;;;16.10;45.32
23281;BME280;11809;56.390;-3.266;2023-02-28T11:24:55;103628.78;;;15.82;44.40
23281;BME280;11809;56.390;-3.266;2023-02-28T11:29:52;103635.41;;;15.51;44.06
23281;BME280;11809;56.390;-3.266;2023-02-28T11:32:24;103643.44;;;15.42;43.95
23281;BME280;11809;56.390;-3.266;2023-02-28T11:37:38;103643.69;;;15.21;44.14
23281;BME280;11809;56.390;-3.266;2023-02-28T11:40:13;103636.72;;;15.12;44.54
23281;BME280;11809;56.390;-3.266;2023-02-28T11:46:10;103638.56;;;15.07;44.71
23281;BME280;11809;56.390;-3.266;2023-02-28T11:51:47;103643.03;;;15.02;44.98
23281;BME280;11809;56.390;-3.266;2023-02-28T11:57:44;103639.44;;;15.07;47.56
23281;BME280;11809;56.390;-3.266;2023-02-28T12:01:03;103643.00;;;15.05;49.21
23281;BME280;11809;56.390;-3.266;2023-02-28T12:03:53;103639.50;;;15.03;50.26
23281;BME280;11809;56.390;-3.266;2023-02-28T12:09:29;103624.50;;;15.03;50.17
23281;BME280;11809;56.390;-3.266;2023-02-28T12:18:19;103638.66;;;14.99;51.23
23281;BME280;11809;56.390;-3.266;2023-02-28T12:21:15;103634.25;;;14.97;51.00
23281;BME280;11809;56.390;-3.266;2023-02-28T12:28:59;103620.16;;;14.93;51.23
23281;BME280;11809;56.390;-3.266;2023-02-28T12:31:41;103622.84;;;14.90;51.44
23281;BME280;11809;56.390;-3.266;2023-02-28T12:34:14;103627.28;;;14.90;51.26
23281;BME280;11809;56.390;-3.266;2023-02-28T12:36:45;103626.41;;;14.89;51.32
23281;BME280;11809;56.390;-3.266;2023-02-28T12:42:05;103614.97;;;14.87;51.76
23281;BME280;11809;56.390;-3.266;2023-02-28T12:44:42;103608.78;;;14.85;51.74
23281;BME280;11809;56.390;-3.266;2023-02-28T12:47:16;103611.44;;;14.85;52.13
23281;BME280;11809;56.390;-3.266;2023-02-28T12:52:24;103609.69;;;14.83;52.00
23281;BME280;11809;56.390;-3.266;2023-02-28T12:54:58;103604.41;;;14.80;52.17
23281;BME280;11809;56.390;-3.266;2023-02-28T12:57:49;103601.81;;;14.78;52.01
23281;BME280;11809;56.390;-3.266;2023-02-28T13:00:20;103608.88;;;14.79;52.01
23281;BME280;11809;56.390;-3.266;2023-02-28T13:08:04;103605.38;;;14.76;51.95
23281;BME280;11809;56.390;-3.266;2023-02-28T13:10:42;103608.91;;;14.72;52.56
23281;BME280;11809;56.390;-3.266;2023-02-28T13:13:16;103608.91;;;14.73;52.30
23281;BME280;11809;56.390;-3.266;2023-02-28T13:16:07;103612.44;;;14.72;52.29
23281;BME280;11809;56.390;-3.266;2023-02-28T13:18:38;103608.91;;;14.72;52.37
23281;BME280;11809;56.390;-3.266;2023-02-28T13:21:27;103599.28;;;14.68;52.74
23281;BME280;11809;56.390;-3.266;2023-02-28T13:29:21;;;;14.64;
23281;BME280;11809;56.390;-3.266;2023-02-28T13:32:18;103600.19;;;14.65;52.50
23281;BME280;11809;56.390;-3.266;2023-02-28T13:39:56;103586.13;;;14.60;52.90
23281;BME280;11809;56.390;-3.266;2023-02-28T13:42:32;103583.47;;;14.60;52.65
23281;BME280;11809;56.390;-3.266;2023-02-28T13:50:29;103580.84;;;14.57;52.50
23281;BME280;11809;56.390;-3.266;2023-02-28T13:55:48;103574.63;;;14.61;52.74
23281;BME280;11809;56.390;-3.266;2023-02-28T14:01:31;103565.66;;;14.76;52.10
23281;BME280;11809;56.390;-3.266;2023-02-28T14:06:55;103553.09;;;14.94;51.58
23281;BME280;11809;56.390;-3.266;2023-02-28T14:09:34;103554.81;;;14.97;51.43
23281;BME280;11809;56.390;-3.266;2023-02-28T14:18:28;103553.78;;;15.08;51.09
23281;BME280;11809;56.390;-3.266;2023-02-28T14:21:08;103553.72;;;15.13;51.21
23281;BME280;11809;56.390;-3.266;2023-02-28T14:26:16;103553.66;;;15.17;51.05
23281;BME280;11809;56.390;-3.266;2023-02-28T14:28:48;103545.69;;;15.21;50.61
23281;BME280;11809;56.390;-3.266;2023-02-28T14:31:29;103543.88;;;15.24;50.75
23281;BME280;11809;56.390;-3.266;2023-02-28T14:36:45;103549.13;;;15.27;50.83
23281;BME280;11809;56.390;-3.266;2023-02-28T14:39:18;103553.56;;;15.27;50.59
23281;BME280;11809;56.390;-3.266;2023-02-28T14:41:47;103549.13;;;15.26;50.28
23281;BME280;11809;56.390;-3.266;2023-02-28T14:46:48;103548.78;;;14.84;48.11
23281;BME280;11809;56.390;-3.266;2023-02-28T14:49:36;103540.81;;;14.86;48.86
23281;BME280;11809;56.390;-3.266;2023-02-28T14:52:17;103538.09;;;14.90;49.78
23281;BME280;11809;56.390;-3.266;2023-02-28T14:54:46;103537.16;;;14.96;50.36
23281;BME280;11809;56.390;-3.266;2023-02-28T14:57:26;103538.81;;;15.04;50.47
23281;BME280;11809;56.390;-3.266;2023-02-28T15:02:47;103537.81;;;15.14;50.89
23281;BME280;11809;56.390;-3.266;2023-02-28T15:07:45;103536.03;;;15.16;50.62
23281;BME280;11809;56.390;-3.266;2023-02-28T15:10:25;103536.31;;;14.95;49.87
23281;BME280;11809;56.390;-3.266;2023-02-28T15:13:02;103534.78;;;14.76;49.39
23281;BME280;11809;56.390;-3.266;2023-02-28T15:21:02;103536.59;;;14.70;50.10
23281;BME280;11809;56.390;-3.266;2023-02-28T15:23:31;103539.28;;;14.67;49.30